This is the latest recevied weather packets stored in our database for station/object KB4NWJ. If no packets are shown the sender has not sent any weather packets the latest 10 day(s).
| Time | Temp. | Humidity | Pressure | Rain* | Wind** | Luminosity | Snow |
|---|---|---|---|---|---|---|---|
| 1777318936 | 23.33° C | 66% | 1020.4 hPa | 0 mm | - | 587 W/m² | - |
| 1777318634 | 23.89° C | 65% | 1020.1 hPa | 0 mm | - | 583 W/m² | - |
| 1777318329 | 23.89° C | 66% | 1020.3 hPa | 0 mm | - | 573 W/m² | - |
| 1777318026 | 23.33° C | 64% | 1020.5 hPa | 0 mm | - | 573 W/m² | - |
| 1777317724 | 23.89° C | 64% | 1020.4 hPa | 0 mm | - | 577 W/m² | - |
| 1777317420 | 23.33° C | 66% | 1020.4 hPa | 0 mm | - | 615 W/m² | - |
| 1777317116 | 23.33° C | 65% | 1020.5 hPa | 0 mm | - | 641 W/m² | - |
| 1777316813 | 23.33° C | 65% | 1020.5 hPa | 0 mm | - | 645 W/m² | - |
| 1777316510 | 23.33° C | 64% | 1020.3 hPa | 0 mm | - | 652 W/m² | - |
| 1777316207 | 22.78° C | 66% | 1020.4 hPa | 0 mm | - | 665 W/m² | - |
| 1777315905 | 23.33° C | 65% | 1020.3 hPa | 0 mm | - | 637 W/m² | - |
| 1777315603 | 23.33° C | 64% | 1020.4 hPa | 0 mm | - | 645 W/m² | - |
| 1777315300 | 23.33° C | 64% | 1020.4 hPa | 0 mm | - | 657 W/m² | - |
| 1777314998 | 22.78° C | 66% | 1020.3 hPa | 0 mm | - | 661 W/m² | - |
| 1777314693 | 22.78° C | 67% | 1020.4 hPa | 0 mm | - | 684 W/m² | - |
| 1777314390 | 22.78° C | 66% | 1020.5 hPa | 0 mm | - | 668 W/m² | - |
| 1777314087 | 22.78° C | 67% | 1020.5 hPa | 0 mm | - | 684 W/m² | - |
| 1777313785 | 23.33° C | 64% | 1020.5 hPa | 0 mm | - | 696 W/m² | - |
| 1777313482 | 23.33° C | 65% | 1020.5 hPa | 0 mm | - | 679 W/m² | - |
| 1777313180 | 22.22° C | 67% | 1020.3 hPa | 0 mm | - | 698 W/m² | - |
| 1777312875 | 22.22° C | 67% | 1020.6 hPa | 0 mm | - | 677 W/m² | - |
| 1777312572 | 22.78° C | 66% | 1020.6 hPa | 0 mm | - | 583 W/m² | - |
| 1777312269 | 22.78° C | 65% | 1020.7 hPa | 0 mm | - | 487 W/m² | - |
| 1777311966 | 22.78° C | 67% | 1020.8 hPa | 0 mm | - | 418 W/m² | - |
| 1777311663 | 22.78° C | 65% | 1020.6 hPa | 0 mm | - | 487 W/m² | - |
* Rain latest hour (hover to see other rain measurements)
** Current wind speed in m/s (hover to see current wind gust speed)